createdAt,value
2019-05-01T00:01:39.293Z,12.87
2019-05-01T00:04:16.406Z,15.50
2019-05-01T00:06:47.472Z,13.50
2019-05-01T00:09:17.074Z,15.40
2019-05-01T00:11:47.142Z,14.63
2019-05-01T00:14:16.741Z,14.57
2019-05-01T00:16:46.882Z,13.47
2019-05-01T00:19:16.254Z,12.27
2019-05-01T00:21:45.699Z,13.30
2019-05-01T00:24:15.058Z,13.27
2019-05-01T00:26:44.429Z,12.73
2019-05-01T00:29:13.832Z,15.07
2019-05-01T00:31:43.231Z,13.20
2019-05-01T00:34:12.675Z,11.97
2019-05-01T00:36:42.024Z,14.03
2019-05-01T00:39:12.778Z,14.33
2019-05-01T00:41:42.146Z,14.03
2019-05-01T00:44:11.499Z,13.23
2019-05-01T00:46:40.874Z,12.30
2019-05-01T00:49:10.235Z,13.73
2019-05-01T00:51:39.595Z,11.93
2019-05-01T00:54:08.951Z,13.07
2019-05-01T00:56:46.057Z,13.37
2019-05-01T00:59:33.224Z,11.70
2019-05-01T01:02:07.461Z,13.13
2019-05-01T01:04:39.982Z,12.77
2019-05-01T01:07:09.397Z,15.80
2019-05-01T01:09:38.847Z,14.20
2019-05-01T01:12:08.443Z,13.50
2019-05-01T01:14:37.823Z,15.20
2019-05-01T01:17:07.187Z,15.07
2019-05-01T01:19:36.575Z,14.77
2019-05-01T01:22:06.203Z,14.03
2019-05-01T01:24:35.651Z,16.97
2019-05-01T01:27:05.088Z,12.53
2019-05-01T01:29:34.437Z,15.17
2019-05-01T01:32:03.991Z,14.73
2019-05-01T01:34:33.348Z,14.03
2019-05-01T01:37:02.775Z,13.17
2019-05-01T01:39:32.290Z,12.97
2019-05-01T01:42:02.003Z,14.50
2019-05-01T01:44:33.005Z,14.00
2019-05-01T01:47:02.799Z,16.77
2019-05-01T01:49:32.298Z,14.87
2019-05-01T01:52:01.999Z,14.43
2019-05-01T01:54:31.620Z,13.90
2019-05-01T01:57:01.333Z,13.23
2019-05-01T01:59:31.226Z,16.00
2019-05-01T02:02:02.499Z,15.40
2019-05-01T02:04:45.950Z,14.97
2019-05-01T02:07:15.596Z,15.07
2019-05-01T02:09:45.090Z,16.77
2019-05-01T02:12:14.955Z,17.20
2019-05-01T02:14:44.451Z,15.27
2019-05-01T02:17:13.820Z,17.40
2019-05-01T02:19:43.190Z,15.07
2019-05-01T02:22:12.634Z,15.13
2019-05-01T02:24:42.058Z,17.00
2019-05-01T02:27:13.404Z,17.17
2019-05-01T02:29:44.937Z,15.03
2019-05-01T02:32:16.936Z,16.70
2019-05-01T02:34:47.237Z,16.33
2019-05-01T02:37:17.943Z,14.53
2019-05-01T02:39:49.317Z,13.53
2019-05-01T02:42:22.211Z,14.33
2019-05-01T02:44:54.819Z,16.40
2019-05-01T02:47:27.255Z,15.73
2019-05-01T02:50:08.304Z,14.50
2019-05-01T02:52:40.220Z,16.37
2019-05-01T02:55:13.032Z,14.30
2019-05-01T02:57:43.330Z,13.60
2019-05-01T03:00:13.203Z,16.40
2019-05-01T03:02:42.925Z,16.13
2019-05-01T03:05:12.416Z,16.20
2019-05-01T03:07:42.228Z,15.13
2019-05-01T03:10:12.025Z,13.17
2019-05-01T03:12:43.632Z,16.17
2019-05-01T03:15:13.574Z,16.53
2019-05-01T03:17:56.836Z,18.60
2019-05-01T03:20:38.145Z,15.67
2019-05-01T03:23:29.339Z,15.93
2019-05-01T03:25:59.237Z,17.37
2019-05-01T03:28:28.939Z,16.23
2019-05-01T03:30:58.361Z,17.57
2019-05-01T03:33:27.900Z,14.33
2019-05-01T03:35:57.519Z,14.17
2019-05-01T03:38:27.232Z,19.47
2019-05-01T03:40:57.539Z,14.83
2019-05-01T03:43:27.649Z,15.57
2019-05-01T03:45:57.341Z,16.17
2019-05-01T03:48:27.448Z,15.27
2019-05-01T03:50:57.167Z,14.20
2019-05-01T03:53:26.807Z,14.63
2019-05-01T03:55:56.441Z,16.60
2019-05-01T03:58:26.054Z,14.23
2019-05-01T04:00:57.225Z,15.37
2019-05-01T04:03:29.037Z,16.20
2019-05-01T04:05:58.525Z,16.27
2019-05-01T04:08:28.535Z,17.73
2019-05-01T04:10:58.242Z,15.93
2019-05-01T04:13:27.598Z,16.77
2019-05-01T04:15:57.452Z,16.00
2019-05-01T04:18:27.754Z,16.57
2019-05-01T04:20:58.190Z,17.83
2019-05-01T04:23:28.705Z,18.03
2019-05-01T04:25:58.382Z,17.27
2019-05-01T04:28:48.000Z,21.60
2019-05-01T04:31:22.242Z,17.43
2019-05-01T04:33:53.824Z,21.13
2019-05-01T04:36:25.059Z,18.50
2019-05-01T04:38:55.291Z,14.97
2019-05-01T04:41:24.995Z,20.77
2019-05-01T04:43:54.432Z,18.90
2019-05-01T04:46:24.224Z,19.73
2019-05-01T04:48:53.732Z,20.87
2019-05-01T04:51:23.227Z,21.00
2019-05-01T04:53:52.811Z,20.33
2019-05-01T04:56:22.410Z,23.27
2019-05-01T04:58:52.119Z,21.40
2019-05-01T05:01:21.639Z,19.20
2019-05-01T05:03:51.354Z,20.80
2019-05-01T05:06:21.028Z,24.70
2019-05-01T05:08:50.742Z,20.50
2019-05-01T05:11:21.882Z,24.07
2019-05-01T05:14:08.185Z,19.47
2019-05-01T05:16:45.619Z,20.97
2019-05-01T05:19:15.413Z,21.63
2019-05-01T05:21:45.340Z,21.00
2019-05-01T05:24:15.243Z,20.63
2019-05-01T05:26:45.332Z,22.37
2019-05-01T05:29:17.178Z,18.27
2019-05-01T05:31:47.824Z,19.70
2019-05-01T05:34:19.584Z,19.97
2019-05-01T05:36:52.453Z,20.90
2019-05-01T05:39:37.296Z,21.60
2019-05-01T05:42:07.984Z,20.50
2019-05-01T05:44:37.923Z,20.10
2019-05-01T05:47:07.550Z,18.60
2019-05-01T05:49:37.101Z,23.07
2019-05-01T05:52:14.074Z,23.07
2019-05-01T05:55:03.344Z,36.87
2019-05-01T05:57:38.261Z,25.13
2019-05-01T06:00:10.342Z,21.37
2019-05-01T06:02:44.812Z,23.57
2019-05-01T06:05:19.480Z,22.00
2019-05-01T06:08:10.702Z,22.40
2019-05-01T06:11:03.131Z,21.77
2019-05-01T06:13:57.083Z,26.17
2019-05-01T06:16:32.671Z,20.47
2019-05-01T06:19:04.117Z,21.63
2019-05-01T06:21:35.957Z,24.00
2019-05-01T06:24:07.663Z,20.27
2019-05-01T06:26:39.271Z,21.27
2019-05-01T06:29:08.234Z,20.77
2019-05-01T06:31:38.088Z,20.00
2019-05-01T06:34:07.609Z,21.07
2019-05-01T06:36:37.318Z,20.47
2019-05-01T06:39:12.035Z,22.30
2019-05-01T06:41:42.794Z,22.37
2019-05-01T06:44:15.370Z,19.80
2019-05-01T06:46:46.916Z,22.03
2019-05-01T06:49:34.254Z,20.90
2019-05-01T06:52:05.912Z,20.83
2019-05-01T06:54:36.332Z,19.30
2019-05-01T06:57:06.725Z,21.63
2019-05-01T06:59:38.208Z,19.53
2019-05-01T07:02:09.392Z,23.73
2019-05-01T07:04:39.902Z,19.17
2019-05-01T07:07:24.049Z,21.23
2019-05-01T07:09:44.216Z,22.23
2019-05-01T07:12:15.308Z,20.53
2019-05-01T07:14:47.208Z,20.60
2019-05-01T07:17:16.587Z,20.37
2019-05-01T07:20:03.219Z,22.10
2019-05-01T07:22:37.070Z,24.77
2019-05-01T07:25:09.091Z,20.27
2019-05-01T07:27:38.599Z,23.80
2019-05-01T07:30:11.146Z,18.50
2019-05-01T07:32:42.696Z,22.07
2019-05-01T07:35:12.563Z,21.93
2019-05-01T07:37:42.359Z,20.60
2019-05-01T07:40:12.271Z,20.70
2019-05-01T07:42:43.714Z,23.03
2019-05-01T07:45:18.526Z,22.30
2019-05-01T07:47:49.649Z,21.53
2019-05-01T07:50:19.511Z,20.50
2019-05-01T07:52:52.211Z,19.77
2019-05-01T07:55:22.480Z,19.70
2019-05-01T07:57:52.261Z,19.53
2019-05-01T08:00:36.979Z,20.43
2019-05-01T08:03:07.240Z,19.50
2019-05-01T08:05:40.937Z,20.63
2019-05-01T08:08:09.564Z,20.83
2019-05-01T08:10:39.206Z,21.63
2019-05-01T08:13:08.565Z,22.07
2019-05-01T08:15:38.079Z,20.50
2019-05-01T08:18:11.890Z,21.60
2019-05-01T08:20:45.795Z,21.40
2019-05-01T08:23:14.167Z,20.40
2019-05-01T08:25:43.699Z,20.20
2019-05-01T08:28:17.732Z,22.70
2019-05-01T08:30:52.739Z,20.63
2019-05-01T08:33:39.659Z,22.27
2019-05-01T08:36:11.671Z,20.97
2019-05-01T08:38:41.254Z,21.83
2019-05-01T08:41:10.740Z,23.90
2019-05-01T08:43:40.470Z,21.40
2019-05-01T08:46:32.498Z,24.00
2019-05-01T08:49:15.656Z,23.90
2019-05-01T08:51:45.178Z,21.87
2019-05-01T08:54:14.612Z,22.70
2019-05-01T08:56:44.088Z,23.07
2019-05-01T08:59:13.628Z,24.23
2019-05-01T09:01:45.803Z,20.90
2019-05-01T09:04:14.143Z,25.27
2019-05-01T09:06:45.103Z,23.80
2019-05-01T09:09:14.643Z,21.93
2019-05-01T09:11:44.022Z,22.63
2019-05-01T09:14:13.445Z,28.10
2019-05-01T09:16:42.833Z,23.60
2019-05-01T09:19:12.247Z,24.90
2019-05-01T09:21:41.691Z,23.23
2019-05-01T09:24:11.117Z,21.57
2019-05-01T09:26:50.031Z,22.53
2019-05-01T09:29:18.166Z,22.40
2019-05-01T09:31:48.309Z,22.50
2019-05-01T09:34:19.266Z,22.33
2019-05-01T09:36:48.728Z,22.77
2019-05-01T09:39:18.923Z,24.33
2019-05-01T09:41:48.818Z,23.20
2019-05-01T09:44:18.475Z,21.80
2019-05-01T09:46:48.123Z,21.20
2019-05-01T09:49:18.333Z,24.07
2019-05-01T09:52:06.991Z,26.77
2019-05-01T09:54:47.887Z,23.87
2019-05-01T09:57:17.502Z,20.33
2019-05-01T09:59:46.927Z,20.10
2019-05-01T10:02:16.299Z,20.67
2019-05-01T10:04:45.732Z,20.27
2019-05-01T10:07:15.250Z,17.07
2019-05-01T10:09:47.364Z,18.40
2019-05-01T10:12:15.700Z,19.30
2019-05-01T10:14:45.238Z,16.67
2019-05-01T10:17:14.602Z,17.63
2019-05-01T10:19:44.073Z,16.50
2019-05-01T10:22:13.424Z,16.27
2019-05-01T10:24:42.858Z,14.57
2019-05-01T10:27:13.848Z,16.63
2019-05-01T10:30:07.275Z,14.70
2019-05-01T10:32:41.023Z,15.67
2019-05-01T10:35:21.613Z,15.53
2019-05-01T10:37:51.107Z,15.73
2019-05-01T10:40:22.301Z,16.37
2019-05-01T10:42:51.923Z,17.93
2019-05-01T10:45:21.292Z,14.27
2019-05-01T10:47:50.760Z,15.67
2019-05-01T10:50:20.118Z,15.07
2019-05-01T10:52:49.483Z,15.10
2019-05-01T10:55:18.922Z,15.17
2019-05-01T10:57:48.282Z,14.03
2019-05-01T11:00:18.547Z,12.40
2019-05-01T11:02:47.900Z,14.97
2019-05-01T11:05:17.350Z,13.27
2019-05-01T11:07:46.790Z,12.10
2019-05-01T11:10:16.776Z,11.17
2019-05-01T11:12:46.142Z,12.57
2019-05-01T11:15:16.015Z,13.00
2019-05-01T11:17:45.447Z,12.70
2019-05-01T11:20:15.154Z,7.77
2019-05-01T11:22:44.573Z,11.97
2019-05-01T11:25:15.826Z,13.03
2019-05-01T11:27:45.281Z,13.43
2019-05-01T11:30:15.855Z,12.10
2019-05-01T11:33:02.702Z,11.43
2019-05-01T11:35:50.209Z,11.63
2019-05-01T11:38:37.727Z,11.77
2019-05-01T11:41:20.950Z,13.13
2019-05-01T11:43:50.304Z,9.50
2019-05-01T11:46:19.816Z,10.77
2019-05-01T11:48:49.256Z,11.57
2019-05-01T11:51:18.629Z,11.23
2019-05-01T11:53:47.987Z,13.13
2019-05-01T11:56:17.505Z,10.63
2019-05-01T11:58:46.878Z,9.83
2019-05-01T12:01:17.873Z,11.57
2019-05-01T12:03:47.233Z,11.90
2019-05-01T12:06:22.960Z,12.27
2019-05-01T12:08:47.688Z,12.67
2019-05-01T12:11:18.746Z,12.23
2019-05-01T12:13:48.116Z,11.83
2019-05-01T12:16:19.107Z,11.43
2019-05-01T12:18:48.527Z,10.93
2019-05-01T12:21:17.902Z,10.67
2019-05-01T12:23:48.633Z,14.03
2019-05-01T12:26:18.091Z,12.00
2019-05-01T12:28:48.987Z,11.77
2019-05-01T12:31:18.374Z,13.57
2019-05-01T12:33:47.830Z,11.67
2019-05-01T12:36:17.187Z,11.77
2019-05-01T12:38:46.531Z,11.63
2019-05-01T12:41:32.792Z,12.83
2019-05-01T12:44:02.223Z,11.90
2019-05-01T12:46:36.291Z,10.97
2019-05-01T12:49:05.712Z,10.77
2019-05-01T12:51:35.623Z,12.37
2019-05-01T12:54:32.027Z,9.93
2019-05-01T12:57:02.540Z,10.50
2019-05-01T12:59:31.891Z,9.00
2019-05-01T13:02:01.327Z,10.97
2019-05-01T13:04:30.677Z,9.50
2019-05-01T13:07:00.490Z,10.77
2019-05-01T13:09:30.039Z,11.40
2019-05-01T13:11:59.407Z,12.30
2019-05-01T13:14:28.766Z,11.07
2019-05-01T13:16:58.146Z,11.50
2019-05-01T13:19:27.677Z,10.00
2019-05-01T13:21:57.158Z,12.67
2019-05-01T13:24:26.555Z,9.00
2019-05-01T13:26:57.635Z,11.30
2019-05-01T13:29:31.744Z,9.03
2019-05-01T13:32:21.261Z,8.43
2019-05-01T13:34:50.869Z,9.70
2019-05-01T13:37:20.298Z,10.00
2019-05-01T13:39:49.719Z,8.93
2019-05-01T13:42:19.135Z,11.57
2019-05-01T13:44:48.479Z,10.47
2019-05-01T13:47:17.927Z,9.70
2019-05-01T13:49:47.263Z,9.77
2019-05-01T13:52:16.635Z,9.83
2019-05-01T13:54:46.131Z,10.03
2019-05-01T13:57:15.671Z,9.87
2019-05-01T13:59:45.001Z,10.47
2019-05-01T14:02:14.739Z,9.13
2019-05-01T14:04:44.351Z,11.67
2019-05-01T14:07:16.571Z,9.50
2019-05-01T14:09:44.759Z,9.23
2019-05-01T14:12:14.199Z,9.23
2019-05-01T14:14:43.602Z,8.77
2019-05-01T14:17:12.991Z,10.73
2019-05-01T14:19:43.980Z,8.43
2019-05-01T14:22:31.191Z,11.40
2019-05-01T14:25:02.188Z,8.90
2019-05-01T14:27:31.558Z,8.63
2019-05-01T14:30:00.921Z,10.70
2019-05-01T14:32:30.376Z,9.57
2019-05-01T14:34:59.814Z,9.20
2019-05-01T14:37:29.961Z,13.93
2019-05-01T14:39:59.538Z,10.87
2019-05-01T14:42:28.892Z,8.53
2019-05-01T14:44:58.330Z,8.10
2019-05-01T14:47:27.741Z,9.27
2019-05-01T14:49:57.143Z,10.23
2019-05-01T14:52:26.529Z,7.53
2019-05-01T14:54:55.881Z,8.10
2019-05-01T14:57:25.211Z,8.03
2019-05-01T14:59:54.651Z,10.83
2019-05-01T15:02:24.102Z,9.00
2019-05-01T15:04:53.463Z,8.40
2019-05-01T15:07:22.810Z,9.43
2019-05-01T15:09:52.272Z,8.17
2019-05-01T15:12:21.682Z,8.13
2019-05-01T15:14:55.794Z,7.90
2019-05-01T15:17:32.966Z,8.33
2019-05-01T15:20:04.187Z,10.80
2019-05-01T15:22:33.611Z,10.07
2019-05-01T15:25:03.322Z,9.33
2019-05-01T15:27:32.682Z,9.10
2019-05-01T15:30:02.051Z,7.33
2019-05-01T15:32:31.663Z,10.07
2019-05-01T15:35:01.129Z,8.20
2019-05-01T15:37:30.681Z,7.70
2019-05-01T15:40:01.742Z,8.50
2019-05-01T15:42:32.732Z,7.53
2019-05-01T15:45:02.386Z,10.20
2019-05-01T15:47:31.735Z,8.20
2019-05-01T15:50:01.171Z,7.37
2019-05-01T15:52:30.523Z,9.00
2019-05-01T15:54:59.881Z,8.03
2019-05-01T15:57:29.376Z,7.50
2019-05-01T15:59:58.736Z,7.73
2019-05-01T16:02:28.084Z,9.23
2019-05-01T16:04:57.479Z,8.30
2019-05-01T16:07:26.890Z,7.97
2019-05-01T16:09:56.851Z,8.67
2019-05-01T16:12:27.850Z,8.33
2019-05-01T16:14:57.347Z,7.67
2019-05-01T16:17:26.959Z,7.83
2019-05-01T16:19:56.415Z,7.07
2019-05-01T16:22:25.863Z,8.93
2019-05-01T16:24:55.235Z,9.20
2019-05-01T16:27:24.811Z,7.97
2019-05-01T16:29:54.172Z,7.00
2019-05-01T16:32:23.595Z,7.67
2019-05-01T16:34:53.049Z,8.33
2019-05-01T16:37:22.575Z,9.57
2019-05-01T16:39:53.570Z,10.87
2019-05-01T16:42:23.676Z,7.73
2019-05-01T16:44:53.236Z,7.67
2019-05-01T16:47:22.682Z,8.27
2019-05-01T16:49:52.036Z,7.70
2019-05-01T16:52:23.430Z,7.83
2019-05-01T16:54:59.104Z,7.83
2019-05-01T16:57:24.349Z,7.07
2019-05-01T16:59:53.888Z,7.53
2019-05-01T17:02:25.204Z,8.60
2019-05-01T17:04:56.282Z,8.33
2019-05-01T17:07:42.683Z,7.30
2019-05-01T17:10:16.676Z,7.23
2019-05-01T17:12:53.735Z,9.87
2019-05-01T17:15:28.083Z,7.83
2019-05-01T17:17:57.506Z,7.40
2019-05-01T17:20:27.228Z,12.37
2019-05-01T17:22:56.814Z,7.80
2019-05-01T17:25:26.296Z,8.77
2019-05-01T17:27:55.768Z,7.10
2019-05-01T17:30:42.933Z,10.23
2019-05-01T17:33:20.162Z,7.30
2019-05-01T17:35:43.643Z,8.13
2019-05-01T17:38:13.032Z,7.13
2019-05-01T17:40:42.444Z,8.23
2019-05-01T17:43:13.514Z,8.53
2019-05-01T17:45:43.039Z,8.90
2019-05-01T17:48:12.416Z,8.17
2019-05-01T17:50:41.828Z,8.70
2019-05-01T17:53:11.317Z,7.33
2019-05-01T17:55:40.804Z,9.60
2019-05-01T17:58:10.151Z,7.67
2019-05-01T18:00:41.342Z,8.67
2019-05-01T18:03:21.178Z,7.87
2019-05-01T18:06:07.505Z,10.03
2019-05-01T18:08:36.955Z,8.17
2019-05-01T18:11:09.237Z,7.77
2019-05-01T18:13:37.492Z,8.00
2019-05-01T18:16:07.298Z,7.73
2019-05-01T18:18:36.730Z,8.77
2019-05-01T18:21:07.214Z,8.37
2019-05-01T18:23:54.664Z,8.10
2019-05-01T18:26:43.500Z,9.17
2019-05-01T18:29:17.846Z,9.27
2019-05-01T18:31:47.207Z,9.43
2019-05-01T18:34:16.587Z,8.07
2019-05-01T18:36:50.124Z,12.47
2019-05-01T18:39:27.376Z,9.83
2019-05-01T18:41:58.598Z,9.87
2019-05-01T18:44:28.148Z,8.50
2019-05-01T18:46:57.777Z,9.43
2019-05-01T18:49:27.144Z,9.70
2019-05-01T18:51:56.569Z,8.27
2019-05-01T18:54:25.973Z,9.90
2019-05-01T18:56:55.402Z,8.67
2019-05-01T18:59:24.851Z,8.67
2019-05-01T19:01:54.930Z,10.17
2019-05-01T19:04:24.737Z,8.00
2019-05-01T19:06:54.225Z,8.27
2019-05-01T19:09:30.224Z,9.03
2019-05-01T19:11:54.866Z,8.93
2019-05-01T19:14:28.720Z,8.27
2019-05-01T19:16:55.859Z,8.03
2019-05-01T19:19:25.278Z,9.80
2019-05-01T19:21:54.828Z,9.50
2019-05-01T19:24:24.853Z,10.43
2019-05-01T19:26:54.292Z,9.00
2019-05-01T19:29:26.675Z,9.20
2019-05-01T19:31:55.076Z,8.80
2019-05-01T19:34:24.435Z,9.87
2019-05-01T19:36:53.930Z,10.23
2019-05-01T19:39:23.397Z,10.77
2019-05-01T19:41:54.565Z,9.40
2019-05-01T19:44:23.839Z,9.57
2019-05-01T19:46:53.420Z,9.40
2019-05-01T19:49:24.583Z,9.67
2019-05-01T19:51:55.470Z,8.53
2019-05-01T19:54:27.874Z,9.07
2019-05-01T19:56:56.578Z,9.53
2019-05-01T19:59:25.952Z,11.00
2019-05-01T20:01:55.407Z,8.43
2019-05-01T20:04:24.795Z,10.57
2019-05-01T20:06:54.250Z,8.97
2019-05-01T20:09:25.381Z,11.30
2019-05-01T20:11:54.758Z,12.37
2019-05-01T20:14:24.281Z,13.10
2019-05-01T20:16:53.711Z,14.90
2019-05-01T20:19:23.096Z,14.00
2019-05-01T20:21:52.533Z,20.93
2019-05-01T20:24:21.968Z,25.97
2019-05-01T20:26:51.508Z,26.17
2019-05-01T20:29:20.932Z,24.47
2019-05-01T20:31:50.983Z,27.03
2019-05-01T20:34:21.114Z,26.93
2019-05-01T20:36:50.554Z,29.17
2019-05-01T20:39:20.060Z,31.00
2019-05-01T20:41:49.566Z,33.60
2019-05-01T20:44:24.068Z,31.93
2019-05-01T20:46:50.053Z,30.93
2019-05-01T20:49:19.438Z,33.50
2019-05-01T20:51:48.811Z,31.87
2019-05-01T20:54:18.262Z,28.57
2019-05-01T20:56:49.278Z,33.23
2019-05-01T20:59:18.783Z,30.90
2019-05-01T21:01:48.255Z,32.70
2019-05-01T21:04:22.335Z,30.93
2019-05-01T21:07:09.954Z,28.23
2019-05-01T21:09:47.582Z,30.27
2019-05-01T21:12:12.072Z,29.97
2019-05-01T21:14:45.285Z,30.37
2019-05-01T21:17:13.669Z,29.23
2019-05-01T21:19:44.156Z,29.53
2019-05-01T21:22:14.265Z,29.97
2019-05-01T21:24:44.510Z,28.70
2019-05-01T21:27:13.994Z,28.30
2019-05-01T21:29:44.540Z,30.87
2019-05-01T21:32:18.289Z,30.33
2019-05-01T21:34:45.285Z,25.63
2019-05-01T21:37:14.735Z,26.20
2019-05-01T21:39:44.116Z,26.33
2019-05-01T21:42:16.042Z,25.30
2019-05-01T21:44:44.555Z,23.43
2019-05-01T21:47:14.115Z,26.20
2019-05-01T21:49:43.687Z,25.70
2019-05-01T21:52:13.613Z,27.33
2019-05-01T21:54:43.078Z,28.00
2019-05-01T21:57:17.423Z,26.13
2019-05-01T21:59:44.901Z,26.77
2019-05-01T22:02:14.803Z,25.60
2019-05-01T22:04:44.285Z,28.77
2019-05-01T22:07:14.107Z,26.00
2019-05-01T22:09:45.638Z,29.60
2019-05-01T22:12:15.066Z,29.37
2019-05-01T22:14:46.097Z,31.40
2019-05-01T22:17:35.352Z,32.00
2019-05-01T22:20:05.703Z,28.73
2019-05-01T22:22:44.038Z,29.80
2019-05-01T22:25:15.659Z,34.30
2019-05-01T22:28:04.415Z,31.47
2019-05-01T22:30:35.408Z,34.97
2019-05-01T22:33:05.536Z,33.83
2019-05-01T22:35:39.523Z,33.60
2019-05-01T22:38:08.894Z,31.90
2019-05-01T22:40:39.962Z,32.53
2019-05-01T22:43:09.457Z,30.23
2019-05-01T22:45:38.944Z,31.27
2019-05-01T22:48:08.404Z,35.83
2019-05-01T22:50:38.135Z,33.17
2019-05-01T22:53:07.827Z,35.20
2019-05-01T22:55:38.572Z,34.77
2019-05-01T22:58:07.995Z,40.20
2019-05-01T23:00:42.023Z,38.70
2019-05-01T23:03:15.997Z,39.13
2019-05-01T23:05:45.423Z,39.03
2019-05-01T23:08:14.973Z,41.43
2019-05-01T23:10:47.092Z,41.40
2019-05-01T23:13:16.191Z,40.37
2019-05-01T23:15:45.611Z,43.70
2019-05-01T23:18:15.758Z,41.80
2019-05-01T23:20:46.037Z,43.97
2019-05-01T23:23:15.487Z,42.67
2019-05-01T23:25:44.922Z,46.23
2019-05-01T23:28:14.356Z,44.63
2019-05-01T23:30:43.787Z,48.30
2019-05-01T23:33:13.175Z,49.07
2019-05-01T23:35:42.602Z,44.97
2019-05-01T23:38:11.975Z,52.83
2019-05-01T23:40:41.366Z,53.30
2019-05-01T23:43:10.728Z,53.13
2019-05-01T23:45:40.165Z,51.60
2019-05-01T23:48:09.526Z,53.33
2019-05-01T23:50:39.382Z,53.20
2019-05-01T23:53:13.493Z,53.13
2019-05-01T23:55:39.959Z,54.33
2019-05-01T23:58:09.338Z,54.37
